createdAt,value
2023-03-30T00:00:26.872Z,3.00
2023-03-30T00:02:54.362Z,2.92
2023-03-30T00:05:23.728Z,2.70
2023-03-30T00:07:50.934Z,3.22
2023-03-30T00:10:19.005Z,3.20
2023-03-30T00:12:48.178Z,2.80
2023-03-30T00:15:16.512Z,3.75
2023-03-30T00:17:43.823Z,2.85
2023-03-30T00:20:11.703Z,2.88
2023-03-30T00:22:39.270Z,2.97
2023-03-30T00:25:07.233Z,3.63
2023-03-30T00:27:34.428Z,3.45
2023-03-30T00:30:02.956Z,3.55
2023-03-30T00:32:30.448Z,2.85
2023-03-30T00:34:57.736Z,2.60
2023-03-30T00:37:25.697Z,2.92
2023-03-30T00:39:54.024Z,2.63
2023-03-30T00:42:21.620Z,3.83
2023-03-30T00:45:15.763Z,3.33
2023-03-30T00:47:44.523Z,2.78
2023-03-30T00:50:12.236Z,4.68
2023-03-30T00:52:39.425Z,2.50
2023-03-30T00:55:07.510Z,3.88
2023-03-30T00:57:34.737Z,2.90
2023-03-30T01:00:01.966Z,2.60
2023-03-30T01:02:29.661Z,3.05
2023-03-30T01:04:58.303Z,2.70
2023-03-30T01:07:25.488Z,2.22
2023-03-30T01:09:52.788Z,2.67
2023-03-30T01:12:20.264Z,3.45
2023-03-30T01:14:48.047Z,2.83
2023-03-30T01:17:16.880Z,2.42
2023-03-30T01:19:53.372Z,3.08
2023-03-30T01:22:26.364Z,2.63
2023-03-30T01:25:02.757Z,4.72
2023-03-30T01:27:40.060Z,3.40
2023-03-30T01:30:12.522Z,2.50
2023-03-30T01:32:55.347Z,2.45
2023-03-30T01:35:27.848Z,3.65
2023-03-30T01:38:13.687Z,2.85
2023-03-30T01:40:43.007Z,2.55
2023-03-30T01:43:10.963Z,2.40
2023-03-30T01:45:39.994Z,2.65
2023-03-30T01:48:09.175Z,2.60
2023-03-30T01:50:38.050Z,3.37
2023-03-30T01:53:06.513Z,2.33
2023-03-30T01:55:34.096Z,2.00
2023-03-30T01:58:03.348Z,3.55
2023-03-30T02:00:30.921Z,2.50
2023-03-30T02:02:59.078Z,2.47
2023-03-30T02:05:27.157Z,2.47
2023-03-30T02:07:54.627Z,3.08
2023-03-30T02:10:22.073Z,2.60
2023-03-30T02:12:49.267Z,3.50
2023-03-30T02:15:17.773Z,2.25
2023-03-30T02:17:47.453Z,2.88
2023-03-30T02:20:16.740Z,3.13
2023-03-30T02:22:44.123Z,2.73
2023-03-30T02:25:11.394Z,4.10
2023-03-30T02:27:38.723Z,2.33
2023-03-30T02:30:07.617Z,2.97
2023-03-30T02:32:37.631Z,2.25
2023-03-30T02:35:09.891Z,2.42
2023-03-30T02:37:44.877Z,3.50
2023-03-30T02:40:15.516Z,3.28
2023-03-30T02:42:49.178Z,2.22
2023-03-30T02:45:19.995Z,2.40
2023-03-30T02:47:50.726Z,3.00
2023-03-30T02:50:18.798Z,3.10
2023-03-30T02:52:49.090Z,4.10
2023-03-30T02:55:18.136Z,3.20
2023-03-30T02:57:46.988Z,2.30
2023-03-30T03:00:17.304Z,2.45
2023-03-30T03:02:45.788Z,2.47
2023-03-30T03:05:14.656Z,2.10
2023-03-30T03:07:41.901Z,2.65
2023-03-30T03:10:09.906Z,2.20
2023-03-30T03:12:37.122Z,2.13
2023-03-30T03:15:05.721Z,2.70
2023-03-30T03:17:34.778Z,2.88
2023-03-30T03:20:02.364Z,2.33
2023-03-30T03:22:31.147Z,2.38
2023-03-30T03:24:58.435Z,2.45
2023-03-30T03:27:25.787Z,3.10
2023-03-30T03:29:53.000Z,2.15
2023-03-30T03:32:20.351Z,2.03
2023-03-30T03:34:47.517Z,1.90
2023-03-30T03:37:14.724Z,2.67
2023-03-30T03:39:43.239Z,2.15
2023-03-30T03:42:10.425Z,2.75
2023-03-30T03:44:38.119Z,2.67
2023-03-30T03:47:05.364Z,2.40
2023-03-30T03:49:32.531Z,2.50
2023-03-30T03:51:59.749Z,2.45
2023-03-30T03:54:26.930Z,3.65
2023-03-30T03:56:55.495Z,2.05
2023-03-30T03:59:22.806Z,1.98
2023-03-30T04:01:50.010Z,2.92
2023-03-30T04:04:17.398Z,2.92
2023-03-30T04:06:44.606Z,2.72
2023-03-30T04:09:11.786Z,2.65
2023-03-30T04:11:38.968Z,1.95
2023-03-30T04:14:07.474Z,1.77
2023-03-30T04:16:34.964Z,1.55
2023-03-30T04:19:02.167Z,2.00
2023-03-30T04:21:29.758Z,2.20
2023-03-30T04:23:57.082Z,1.85
2023-03-30T04:26:24.275Z,1.92
2023-03-30T04:28:53.664Z,1.80
2023-03-30T04:31:22.565Z,2.10
2023-03-30T04:33:53.140Z,2.58
2023-03-30T04:36:21.199Z,1.92
2023-03-30T04:38:58.428Z,2.28
2023-03-30T04:41:26.848Z,2.65
2023-03-30T04:43:54.045Z,2.13
2023-03-30T04:46:22.633Z,2.38
2023-03-30T04:48:49.839Z,2.65
2023-03-30T04:51:17.012Z,2.00
2023-03-30T04:53:44.228Z,2.50
2023-03-30T04:56:11.531Z,2.45
2023-03-30T04:58:38.735Z,2.20
2023-03-30T05:01:06.223Z,2.35
2023-03-30T05:03:35.278Z,2.00
2023-03-30T05:06:02.570Z,2.10
2023-03-30T05:08:29.783Z,2.08
2023-03-30T05:10:58.470Z,2.58
2023-03-30T05:13:25.751Z,1.95
2023-03-30T05:15:53.804Z,2.08
2023-03-30T05:18:20.999Z,1.95
2023-03-30T05:20:49.546Z,2.00
2023-03-30T05:23:16.745Z,2.10
2023-03-30T05:25:45.244Z,2.75
2023-03-30T05:28:12.505Z,1.88
2023-03-30T05:30:39.722Z,2.17
2023-03-30T05:33:09.649Z,2.70
2023-03-30T05:35:37.122Z,1.90
2023-03-30T05:38:07.223Z,3.80
2023-03-30T05:43:01.599Z,2.38
2023-03-30T05:45:28.813Z,3.92
2023-03-30T05:47:56.125Z,2.67
2023-03-30T05:50:23.355Z,1.90
2023-03-30T05:52:50.617Z,5.45
2023-03-30T05:55:19.306Z,3.45
2023-03-30T05:57:46.608Z,4.10
2023-03-30T06:00:15.932Z,2.75
2023-03-30T06:02:43.239Z,6.43
2023-03-30T06:05:10.636Z,7.70
2023-03-30T06:07:38.350Z,8.43
2023-03-30T06:10:06.027Z,4.88
2023-03-30T06:12:34.533Z,12.70
2023-03-30T06:15:03.091Z,10.73
2023-03-30T06:17:30.630Z,18.50
2023-03-30T06:19:57.818Z,77.68
2023-03-30T06:22:25.020Z,88.90
2023-03-30T06:24:52.388Z,56.53
2023-03-30T06:27:19.612Z,89.75
2023-03-30T06:29:48.496Z,75.90
2023-03-30T06:32:15.772Z,163.40
2023-03-30T06:34:43.055Z,203.68
2023-03-30T06:37:10.244Z,168.88
2023-03-30T06:39:37.951Z,131.70
2023-03-30T06:42:05.575Z,146.20
2023-03-30T06:44:33.791Z,87.63
2023-03-30T06:47:02.866Z,84.32
2023-03-30T06:49:30.885Z,83.07
2023-03-30T06:51:58.520Z,75.45
2023-03-30T06:54:26.748Z,73.85
2023-03-30T06:56:53.967Z,69.20
2023-03-30T06:59:21.529Z,69.10
2023-03-30T07:01:48.774Z,72.97
2023-03-30T07:04:17.635Z,54.45
2023-03-30T07:06:44.871Z,60.78
2023-03-30T07:09:12.891Z,53.10
2023-03-30T07:11:40.087Z,57.92
2023-03-30T07:14:09.999Z,54.05
2023-03-30T07:16:38.287Z,53.28
2023-03-30T07:19:05.595Z,40.67
2023-03-30T07:21:34.150Z,38.40
2023-03-30T07:24:02.253Z,34.13
2023-03-30T07:26:29.478Z,40.10
2023-03-30T07:28:57.156Z,39.25
2023-03-30T07:31:24.852Z,36.97
2023-03-30T07:33:52.184Z,41.78
2023-03-30T07:36:19.651Z,28.25
2023-03-30T07:38:48.220Z,22.73
2023-03-30T07:41:16.131Z,25.92
2023-03-30T07:43:43.372Z,24.67
2023-03-30T07:46:11.769Z,26.50
2023-03-30T07:48:39.067Z,34.72
2023-03-30T07:51:06.916Z,27.05
2023-03-30T07:53:34.194Z,30.33
2023-03-30T07:56:02.700Z,23.35
2023-03-30T07:58:29.944Z,28.30
2023-03-30T08:00:57.127Z,20.80
2023-03-30T08:03:24.542Z,23.40
2023-03-30T08:05:55.023Z,20.23
2023-03-30T08:08:22.311Z,19.48
2023-03-30T08:10:49.568Z,23.35
2023-03-30T08:13:19.848Z,17.92
2023-03-30T08:15:48.921Z,18.42
2023-03-30T08:18:16.351Z,15.80
2023-03-30T08:20:43.780Z,21.48
2023-03-30T08:23:11.096Z,8.73
2023-03-30T08:25:38.362Z,9.05
2023-03-30T08:28:05.931Z,8.40
2023-03-30T08:30:34.441Z,8.68
2023-03-30T08:33:01.752Z,7.85
2023-03-30T08:35:29.119Z,9.73
2023-03-30T08:37:56.371Z,10.82
2023-03-30T08:40:23.611Z,9.05
2023-03-30T08:43:12.958Z,7.85
2023-03-30T08:45:42.850Z,5.90
2023-03-30T08:50:37.419Z,8.68
2023-03-30T08:53:05.410Z,7.85
2023-03-30T08:55:33.661Z,9.68
2023-03-30T08:58:02.491Z,9.68
2023-03-30T09:00:37.730Z,11.30
2023-03-30T09:03:11.535Z,9.85
2023-03-30T09:05:40.276Z,8.30
2023-03-30T09:08:08.562Z,9.68
2023-03-30T09:10:37.085Z,10.82
2023-03-30T09:13:04.468Z,9.13
2023-03-30T09:15:32.362Z,8.88
2023-03-30T09:18:01.485Z,13.55
2023-03-30T09:20:30.223Z,8.75
2023-03-30T09:22:59.279Z,8.40
2023-03-30T09:25:27.543Z,12.52
2023-03-30T09:27:57.092Z,9.43
2023-03-30T09:30:26.327Z,9.18
2023-03-30T09:32:59.156Z,9.93
2023-03-30T09:35:27.400Z,9.07
2023-03-30T09:37:56.065Z,7.10
2023-03-30T09:40:26.508Z,10.15
2023-03-30T09:42:56.138Z,10.50
2023-03-30T09:45:23.953Z,10.07
2023-03-30T09:47:51.849Z,5.90
2023-03-30T09:50:19.791Z,11.57
2023-03-30T09:52:56.243Z,8.60
2023-03-30T09:55:27.828Z,9.30
2023-03-30T09:57:55.530Z,7.65
2023-03-30T10:00:24.691Z,13.43
2023-03-30T10:02:55.472Z,9.55
2023-03-30T10:05:22.734Z,9.15
2023-03-30T10:07:53.362Z,8.15
2023-03-30T10:10:29.668Z,23.40
2023-03-30T10:12:57.872Z,46.00
2023-03-30T10:15:25.067Z,85.93
2023-03-30T10:17:56.146Z,68.70
2023-03-30T10:20:24.797Z,77.35
2023-03-30T10:22:52.962Z,56.63
2023-03-30T10:25:21.190Z,59.83
2023-03-30T10:27:49.822Z,51.13
2023-03-30T10:30:19.094Z,39.25
2023-03-30T10:32:46.531Z,35.57
2023-03-30T10:35:15.257Z,27.88
2023-03-30T10:37:43.746Z,30.00
2023-03-30T10:40:12.235Z,28.73
2023-03-30T10:42:39.503Z,27.08
2023-03-30T10:45:08.563Z,33.72
2023-03-30T10:47:42.694Z,19.50
2023-03-30T10:50:12.362Z,25.63
2023-03-30T10:52:48.789Z,24.30
2023-03-30T10:55:24.102Z,15.55
2023-03-30T10:57:52.803Z,19.08
2023-03-30T11:00:23.963Z,17.13
2023-03-30T11:02:55.615Z,17.38
2023-03-30T11:05:23.174Z,18.35
2023-03-30T11:07:51.135Z,17.52
2023-03-30T11:10:19.181Z,14.00
2023-03-30T11:12:47.511Z,19.33
2023-03-30T11:15:15.475Z,15.15
2023-03-30T11:17:45.674Z,9.93
2023-03-30T11:20:18.820Z,15.70
2023-03-30T11:22:46.661Z,10.27
2023-03-30T11:25:17.027Z,11.15
2023-03-30T11:27:45.516Z,13.48
2023-03-30T11:30:14.266Z,9.48
2023-03-30T11:32:42.776Z,10.73
2023-03-30T11:35:13.660Z,10.45
2023-03-30T11:37:42.423Z,7.22
2023-03-30T11:40:14.045Z,10.75
2023-03-30T11:42:41.744Z,10.43
2023-03-30T11:45:17.046Z,9.50
2023-03-30T11:47:48.767Z,9.40
2023-03-30T11:50:20.941Z,10.05
2023-03-30T11:52:51.280Z,9.60
2023-03-30T11:55:20.847Z,6.25
2023-03-30T11:57:48.895Z,6.13
2023-03-30T12:00:25.923Z,7.13
2023-03-30T12:02:55.128Z,4.93
2023-03-30T12:05:25.437Z,6.60
2023-03-30T12:07:54.600Z,6.40
2023-03-30T12:10:22.759Z,6.38
2023-03-30T12:12:51.907Z,5.32
2023-03-30T12:15:26.288Z,6.38
2023-03-30T12:17:53.943Z,4.72
2023-03-30T12:20:33.149Z,4.78
2023-03-30T12:23:02.031Z,5.97
2023-03-30T12:25:29.824Z,7.53
2023-03-30T12:28:01.575Z,5.20
2023-03-30T12:30:29.250Z,4.22
2023-03-30T12:33:03.056Z,5.22
2023-03-30T12:35:48.830Z,5.50
2023-03-30T12:38:19.824Z,6.03
2023-03-30T12:40:48.946Z,5.10
2023-03-30T12:43:17.804Z,3.75
2023-03-30T12:45:48.972Z,6.25
2023-03-30T12:48:23.126Z,6.22
2023-03-30T12:50:53.958Z,5.30
2023-03-30T12:53:25.761Z,4.93
2023-03-30T12:55:54.389Z,5.40
2023-03-30T12:58:42.288Z,3.92
2023-03-30T13:01:14.444Z,6.95
2023-03-30T13:03:42.529Z,4.05
2023-03-30T13:06:16.141Z,4.47
2023-03-30T13:08:44.632Z,3.88
2023-03-30T13:11:12.935Z,3.88
2023-03-30T13:13:47.648Z,3.85
2023-03-30T13:16:14.983Z,5.88
2023-03-30T13:18:52.718Z,3.70
2023-03-30T13:21:21.523Z,3.30
2023-03-30T13:26:34.023Z,3.63
2023-03-30T13:29:05.690Z,4.22
2023-03-30T13:31:35.561Z,4.55
2023-03-30T13:34:04.626Z,4.50
2023-03-30T13:36:31.854Z,6.20
2023-03-30T13:39:04.177Z,3.78
2023-03-30T13:41:35.488Z,3.80
2023-03-30T13:44:06.145Z,4.18
2023-03-30T13:46:34.052Z,6.00
2023-03-30T13:49:05.564Z,3.92
2023-03-30T13:51:32.759Z,4.88
2023-03-30T13:54:01.057Z,6.32
2023-03-30T13:56:28.567Z,4.57
2023-03-30T13:58:58.542Z,4.78
2023-03-30T14:01:25.867Z,5.28
2023-03-30T14:03:55.152Z,3.15
2023-03-30T14:06:22.562Z,4.93
2023-03-30T14:08:50.027Z,3.33
2023-03-30T14:11:18.159Z,5.82
2023-03-30T14:13:46.014Z,4.63
2023-03-30T14:16:19.372Z,3.70
2023-03-30T14:18:46.594Z,4.97
2023-03-30T14:21:15.108Z,2.83
2023-03-30T14:23:43.181Z,4.90
2023-03-30T14:26:13.722Z,3.65
2023-03-30T14:28:42.610Z,5.13
2023-03-30T14:31:15.510Z,4.88
2023-03-30T14:33:42.771Z,6.55
2023-03-30T14:36:11.859Z,6.03
2023-03-30T14:38:39.791Z,3.93
2023-03-30T14:41:07.783Z,4.90
2023-03-30T14:43:39.424Z,5.35
2023-03-30T14:46:07.450Z,4.25
2023-03-30T14:48:37.333Z,3.80
2023-03-30T14:51:04.965Z,6.47
2023-03-30T14:53:32.195Z,3.60
2023-03-30T14:56:00.510Z,4.07
2023-03-30T14:58:27.968Z,3.40
2023-03-30T15:00:56.363Z,5.95
2023-03-30T15:03:32.802Z,5.13
2023-03-30T15:06:02.264Z,7.03
2023-03-30T15:08:31.323Z,5.35
2023-03-30T15:10:58.977Z,3.55
2023-03-30T15:13:28.504Z,5.00
2023-03-30T15:15:57.358Z,5.50
2023-03-30T15:18:25.166Z,5.53
2023-03-30T15:20:52.646Z,4.57
2023-03-30T15:23:21.187Z,4.72
2023-03-30T15:25:48.411Z,4.18
2023-03-30T15:28:18.947Z,4.18
2023-03-30T15:30:46.620Z,5.70
2023-03-30T15:33:20.766Z,3.40
2023-03-30T15:35:48.017Z,3.78
2023-03-30T15:38:16.247Z,3.47
2023-03-30T15:40:45.086Z,3.38
2023-03-30T15:43:12.916Z,4.20
2023-03-30T15:45:40.141Z,2.28
2023-03-30T15:48:07.383Z,2.83
2023-03-30T15:50:35.086Z,3.55
2023-03-30T15:53:02.380Z,4.53
2023-03-30T15:55:29.819Z,4.20
2023-03-30T15:57:59.301Z,2.58
2023-03-30T16:00:28.045Z,2.10
2023-03-30T16:02:57.712Z,4.95
2023-03-30T16:05:25.457Z,3.45
2023-03-30T16:07:52.786Z,4.15
2023-03-30T16:10:20.668Z,4.18
2023-03-30T16:12:48.349Z,3.58
2023-03-30T16:15:17.296Z,4.22
2023-03-30T16:17:44.511Z,2.08
2023-03-30T16:20:16.007Z,2.05
2023-03-30T16:22:43.189Z,3.13
2023-03-30T16:25:10.611Z,2.05
2023-03-30T16:27:37.907Z,2.78
2023-03-30T16:30:10.812Z,2.88
2023-03-30T16:32:39.420Z,3.92
2023-03-30T16:35:06.884Z,4.28
2023-03-30T16:37:34.113Z,4.15
2023-03-30T16:40:01.489Z,3.63
2023-03-30T16:42:28.735Z,4.13
2023-03-30T16:44:56.265Z,3.28
2023-03-30T16:47:23.558Z,3.53
2023-03-30T16:49:52.570Z,2.60
2023-03-30T16:52:19.766Z,2.40
2023-03-30T16:54:46.934Z,3.08
2023-03-30T16:57:14.184Z,3.63
2023-03-30T16:59:42.387Z,3.13
2023-03-30T17:02:10.823Z,2.60
2023-03-30T17:04:39.409Z,3.72
2023-03-30T17:07:07.909Z,2.85
2023-03-30T17:09:35.339Z,2.03
2023-03-30T17:12:02.601Z,3.55
2023-03-30T17:14:30.080Z,3.55
2023-03-30T17:16:57.331Z,4.00
2023-03-30T17:19:27.347Z,2.90
2023-03-30T17:21:54.584Z,4.63
2023-03-30T17:24:23.088Z,3.67
2023-03-30T17:26:50.294Z,2.08
2023-03-30T17:29:17.689Z,4.68
2023-03-30T17:31:45.859Z,4.00
2023-03-30T17:34:13.502Z,2.80
2023-03-30T17:36:40.695Z,3.05
2023-03-30T17:39:10.238Z,2.78
2023-03-30T17:41:38.741Z,3.08
2023-03-30T17:44:06.454Z,2.53
2023-03-30T17:46:33.887Z,2.80
2023-03-30T17:49:01.258Z,3.92
2023-03-30T17:51:28.459Z,3.95
2023-03-30T17:53:55.680Z,3.30
2023-03-30T17:56:22.879Z,3.22
2023-03-30T17:58:52.994Z,2.75
2023-03-30T18:03:47.465Z,1.60
2023-03-30T18:06:14.746Z,3.28
2023-03-30T18:08:42.888Z,2.90
2023-03-30T18:11:10.386Z,3.47
2023-03-30T18:13:37.986Z,2.38
2023-03-30T18:16:06.866Z,1.77
2023-03-30T18:18:34.198Z,3.38
2023-03-30T18:21:03.328Z,3.47
2023-03-30T18:23:31.327Z,2.47
2023-03-30T18:25:58.579Z,2.72
2023-03-30T18:28:26.155Z,3.30
2023-03-30T18:30:55.186Z,3.83
2023-03-30T18:33:23.795Z,3.58
2023-03-30T18:35:51.426Z,2.70
2023-03-30T18:38:19.129Z,3.70
2023-03-30T18:40:47.279Z,3.67
2023-03-30T18:43:14.465Z,1.58
2023-03-30T18:45:42.151Z,1.67
2023-03-30T18:48:09.720Z,3.83
2023-03-30T18:50:38.692Z,2.70
2023-03-30T18:53:06.424Z,3.67
2023-03-30T18:55:34.289Z,1.95
2023-03-30T18:58:02.381Z,3.10
2023-03-30T19:00:29.875Z,2.40
2023-03-30T19:02:57.501Z,2.45
2023-03-30T19:05:25.461Z,3.53
2023-03-30T19:07:54.009Z,3.50
2023-03-30T19:10:21.681Z,4.32
2023-03-30T19:12:53.415Z,2.67
2023-03-30T19:15:21.305Z,2.92
2023-03-30T19:17:48.647Z,3.70
2023-03-30T19:20:15.958Z,1.90
2023-03-30T19:22:43.201Z,2.75
2023-03-30T19:25:12.061Z,2.47
2023-03-30T19:27:40.914Z,3.10
2023-03-30T19:30:14.280Z,3.97
2023-03-30T19:32:41.507Z,1.65
2023-03-30T19:35:08.844Z,3.22
2023-03-30T19:37:36.144Z,3.28
2023-03-30T19:40:03.596Z,2.20
2023-03-30T19:42:32.387Z,2.88
2023-03-30T19:44:59.670Z,3.35
2023-03-30T19:47:28.874Z,1.50
2023-03-30T19:49:56.372Z,2.17
2023-03-30T19:52:23.660Z,1.88
2023-03-30T19:54:51.154Z,2.50
2023-03-30T19:57:18.489Z,2.42
2023-03-30T19:59:47.720Z,2.78
2023-03-30T20:02:15.039Z,2.42
2023-03-30T20:04:42.328Z,2.80
2023-03-30T20:07:09.527Z,4.05
2023-03-30T20:09:36.730Z,2.35
2023-03-30T20:12:04.329Z,2.60
2023-03-30T20:14:32.111Z,2.20
2023-03-30T20:17:00.716Z,3.30
2023-03-30T20:19:29.717Z,2.17
2023-03-30T20:21:57.342Z,3.63
2023-03-30T20:24:24.570Z,2.83
2023-03-30T20:26:52.574Z,2.13
2023-03-30T20:29:19.819Z,4.25
2023-03-30T20:31:47.091Z,2.65
2023-03-30T20:34:16.355Z,2.40
2023-03-30T20:36:44.722Z,3.57
2023-03-30T20:39:13.820Z,3.42
2023-03-30T20:41:42.444Z,2.10
2023-03-30T20:44:11.931Z,2.33
2023-03-30T20:46:39.393Z,3.40
2023-03-30T20:49:07.984Z,2.20
2023-03-30T20:51:39.967Z,2.55
2023-03-30T20:54:07.500Z,2.25
2023-03-30T20:56:34.696Z,3.67
2023-03-30T20:59:02.238Z,2.95
2023-03-30T21:01:30.081Z,3.38
2023-03-30T21:03:57.958Z,2.65
2023-03-30T21:06:25.412Z,3.50
2023-03-30T21:08:54.083Z,2.40
2023-03-30T21:11:22.550Z,2.67
2023-03-30T21:13:50.474Z,3.72
2023-03-30T21:16:17.706Z,1.73
2023-03-30T21:18:45.036Z,2.38
2023-03-30T21:21:12.226Z,3.00
2023-03-30T21:23:40.181Z,2.20
2023-03-30T21:26:09.053Z,2.53
2023-03-30T21:28:36.280Z,3.10
2023-03-30T21:31:05.058Z,2.58
2023-03-30T21:33:32.274Z,2.47
2023-03-30T21:35:59.662Z,3.10
2023-03-30T21:38:27.284Z,2.33
2023-03-30T21:40:55.395Z,2.80
2023-03-30T21:43:23.940Z,4.50
2023-03-30T21:45:54.733Z,2.80
2023-03-30T21:48:21.961Z,2.72
2023-03-30T21:50:49.195Z,2.53
2023-03-30T21:53:16.471Z,2.58
2023-03-30T21:55:43.821Z,2.92
2023-03-30T21:58:11.134Z,2.35
2023-03-30T22:00:39.639Z,2.97
2023-03-30T22:03:06.914Z,3.33
2023-03-30T22:05:34.208Z,2.20
2023-03-30T22:08:01.560Z,5.10
2023-03-30T22:10:28.810Z,4.40
2023-03-30T22:12:56.050Z,2.45
2023-03-30T22:15:23.256Z,4.05
2023-03-30T22:17:51.831Z,2.22
2023-03-30T22:20:19.181Z,3.83
2023-03-30T22:22:46.389Z,2.92
2023-03-30T22:25:13.662Z,2.47
2023-03-30T22:27:41.634Z,1.98
2023-03-30T22:30:09.357Z,2.13
2023-03-30T22:32:36.637Z,2.78
2023-03-30T22:35:06.055Z,2.20
2023-03-30T22:37:33.253Z,2.60
2023-03-30T22:40:00.541Z,4.05
2023-03-30T22:42:27.740Z,1.98
2023-03-30T22:44:54.920Z,2.75
2023-03-30T22:47:22.204Z,2.42
2023-03-30T22:49:50.250Z,3.08
2023-03-30T22:52:20.446Z,2.28
2023-03-30T22:57:14.837Z,3.03
2023-03-30T22:59:42.297Z,2.65
2023-03-30T23:02:09.497Z,2.08
2023-03-30T23:04:36.681Z,2.42
2023-03-30T23:07:04.329Z,1.98
2023-03-30T23:09:33.406Z,4.22
2023-03-30T23:12:00.665Z,4.90
2023-03-30T23:14:28.095Z,1.48
2023-03-30T23:16:57.581Z,2.15
2023-03-30T23:19:25.698Z,2.33
2023-03-30T23:21:54.274Z,2.15
2023-03-30T23:24:21.485Z,1.85
2023-03-30T23:26:50.517Z,1.55
2023-03-30T23:29:17.744Z,2.47
2023-03-30T23:31:44.932Z,3.03
2023-03-30T23:34:12.627Z,3.65
2023-03-30T23:36:39.936Z,1.45
2023-03-30T23:39:07.135Z,2.47
2023-03-30T23:41:34.331Z,2.10
2023-03-30T23:44:02.840Z,2.55
2023-03-30T23:46:30.086Z,3.20
2023-03-30T23:48:57.298Z,2.35
2023-03-30T23:51:24.612Z,4.85
2023-03-30T23:53:54.351Z,1.90
2023-03-30T23:56:21.620Z,2.33
2023-03-30T23:58:48.887Z,1.95
